createdAt,value
2024-02-08T00:00:27.130Z,1.92
2024-02-08T00:02:54.805Z,2.80
2024-02-08T00:05:23.696Z,3.50
2024-02-08T00:07:51.651Z,2.35
2024-02-08T00:10:19.229Z,3.08
2024-02-08T00:12:46.814Z,3.50
2024-02-08T00:15:16.951Z,3.13
2024-02-08T00:17:50.338Z,3.25
2024-02-08T00:20:18.260Z,3.88
2024-02-08T00:22:50.647Z,5.85
2024-02-08T00:25:18.424Z,2.78
2024-02-08T00:27:47.855Z,3.30
2024-02-08T00:30:16.780Z,3.47
2024-02-08T00:32:47.249Z,3.42
2024-02-08T00:35:18.793Z,4.60
2024-02-08T00:37:49.205Z,3.70
2024-02-08T00:40:17.986Z,3.83
2024-02-08T00:42:47.130Z,4.15
2024-02-08T00:45:16.615Z,3.50
2024-02-08T00:47:44.277Z,3.47
2024-02-08T00:50:12.074Z,3.20
2024-02-08T00:52:39.800Z,3.95
2024-02-08T00:55:09.781Z,3.28
2024-02-08T00:57:37.413Z,4.18
2024-02-08T01:00:06.900Z,3.58
2024-02-08T01:02:34.570Z,3.92
2024-02-08T01:05:02.949Z,2.83
2024-02-08T01:07:32.751Z,3.80
2024-02-08T01:10:00.431Z,4.00
2024-02-08T01:12:29.980Z,4.13
2024-02-08T01:14:57.545Z,4.03
2024-02-08T01:17:25.080Z,4.10
2024-02-08T01:19:53.194Z,7.15
2024-02-08T01:22:21.698Z,5.38
2024-02-08T01:24:50.010Z,5.13
2024-02-08T01:27:22.132Z,4.88
2024-02-08T01:32:21.727Z,5.38
2024-02-08T01:34:50.890Z,4.95
2024-02-08T01:37:19.331Z,7.97
2024-02-08T01:39:47.094Z,4.70
2024-02-08T01:42:15.707Z,7.95
2024-02-08T01:44:47.249Z,6.05
2024-02-08T01:47:18.561Z,5.40
2024-02-08T01:49:48.201Z,7.95
2024-02-08T01:52:19.512Z,6.45
2024-02-08T01:54:50.281Z,8.65
2024-02-08T01:57:18.494Z,8.07
2024-02-08T01:59:54.429Z,6.38
2024-02-08T02:02:24.086Z,8.38
2024-02-08T02:04:52.269Z,7.88
2024-02-08T02:07:20.456Z,9.70
2024-02-08T02:09:48.438Z,8.75
2024-02-08T02:12:19.040Z,7.57
2024-02-08T02:14:47.312Z,8.40
2024-02-08T02:17:17.576Z,9.65
2024-02-08T02:19:48.591Z,9.27
2024-02-08T02:22:20.142Z,8.30
2024-02-08T02:24:49.835Z,8.13
2024-02-08T02:27:18.977Z,8.00
2024-02-08T02:29:54.480Z,8.32
2024-02-08T02:32:23.138Z,8.30
2024-02-08T02:34:52.667Z,9.07
2024-02-08T02:37:22.460Z,8.40
2024-02-08T02:39:50.429Z,8.27
2024-02-08T02:42:18.078Z,7.80
2024-02-08T02:44:45.668Z,11.63
2024-02-08T02:47:13.277Z,10.90
2024-02-08T02:49:40.887Z,9.77
2024-02-08T02:52:09.517Z,10.18
2024-02-08T02:54:41.344Z,9.15
2024-02-08T02:57:09.581Z,10.55
2024-02-08T02:59:38.163Z,10.07
2024-02-08T03:02:09.298Z,12.18
2024-02-08T03:04:36.950Z,11.30
2024-02-08T03:07:04.539Z,12.10
2024-02-08T03:09:32.779Z,10.32
2024-02-08T03:12:01.817Z,13.07
2024-02-08T03:14:29.868Z,11.80
2024-02-08T03:17:01.876Z,12.65
2024-02-08T03:19:36.201Z,14.07
2024-02-08T03:22:08.436Z,12.00
2024-02-08T03:24:37.129Z,15.48
2024-02-08T03:27:08.644Z,14.27
2024-02-08T03:29:36.742Z,11.27
2024-02-08T03:32:04.529Z,14.18
2024-02-08T03:34:32.689Z,11.32
2024-02-08T03:37:00.958Z,17.00
2024-02-08T03:39:28.997Z,13.00
2024-02-08T03:42:00.150Z,11.55
2024-02-08T03:44:31.433Z,13.18
2024-02-08T03:47:06.378Z,13.18
2024-02-08T03:49:34.531Z,13.68
2024-02-08T03:52:03.090Z,14.95
2024-02-08T03:54:31.657Z,17.55
2024-02-08T03:57:06.614Z,13.38
2024-02-08T03:59:41.303Z,14.52
2024-02-08T04:02:11.110Z,16.60
2024-02-08T04:04:51.526Z,19.10
2024-02-08T04:07:23.191Z,14.23
2024-02-08T04:10:19.340Z,12.80
2024-02-08T04:13:04.757Z,14.90
2024-02-08T04:15:51.505Z,16.70
2024-02-08T04:18:36.771Z,17.25
2024-02-08T04:21:22.119Z,13.18
2024-02-08T04:24:09.261Z,14.23
2024-02-08T04:26:54.638Z,14.75
2024-02-08T04:29:39.885Z,15.48
2024-02-08T04:32:26.782Z,14.40
2024-02-08T04:35:12.427Z,13.75
2024-02-08T04:37:57.725Z,19.90
2024-02-08T04:40:42.943Z,16.33
2024-02-08T04:43:28.100Z,16.67
2024-02-08T04:46:13.598Z,19.77
2024-02-08T04:49:00.473Z,16.73
2024-02-08T04:51:45.546Z,17.38
2024-02-08T04:56:40.996Z,15.40
2024-02-08T04:59:21.479Z,19.55
2024-02-08T05:01:51.392Z,17.33
2024-02-08T05:04:22.092Z,15.77
2024-02-08T05:06:50.330Z,15.25
2024-02-08T05:09:20.692Z,14.55
2024-02-08T05:11:50.169Z,16.10
2024-02-08T05:14:20.545Z,16.60
2024-02-08T05:16:48.221Z,16.30
2024-02-08T05:19:16.298Z,17.55
2024-02-08T05:21:45.330Z,18.27
2024-02-08T05:24:14.524Z,16.90
2024-02-08T05:26:42.791Z,18.98
2024-02-08T05:29:10.479Z,16.73
2024-02-08T05:31:40.967Z,21.40
2024-02-08T05:34:16.465Z,19.20
2024-02-08T05:36:50.391Z,17.60
2024-02-08T05:39:26.193Z,17.92
2024-02-08T05:41:56.817Z,15.82
2024-02-08T05:44:30.273Z,15.95
2024-02-08T05:46:58.446Z,17.55
2024-02-08T05:49:31.496Z,18.63
2024-02-08T05:52:07.050Z,20.33
2024-02-08T05:54:37.661Z,23.02
2024-02-08T05:57:08.088Z,19.17
2024-02-08T05:59:38.711Z,18.45
2024-02-08T06:02:16.337Z,20.23
2024-02-08T06:04:52.269Z,17.30
2024-02-08T06:07:22.759Z,16.83
2024-02-08T06:09:56.616Z,22.52
2024-02-08T06:12:29.658Z,18.85
2024-02-08T06:15:00.625Z,24.35
2024-02-08T06:17:33.402Z,20.15
2024-02-08T06:20:02.039Z,19.75
2024-02-08T06:22:31.773Z,17.60
2024-02-08T06:25:09.671Z,19.13
2024-02-08T06:27:37.753Z,19.60
2024-02-08T06:30:10.322Z,20.67
2024-02-08T06:32:45.057Z,17.27
2024-02-08T06:35:20.706Z,19.40
2024-02-08T06:37:57.617Z,15.18
2024-02-08T06:40:38.314Z,16.88
2024-02-08T06:43:28.405Z,21.05
2024-02-08T06:46:10.212Z,18.48
2024-02-08T06:48:50.203Z,20.17
2024-02-08T06:51:36.265Z,16.13
2024-02-08T06:54:23.014Z,21.45
2024-02-08T06:57:08.192Z,18.92
2024-02-08T06:59:55.711Z,20.42
2024-02-08T07:02:41.575Z,22.20
2024-02-08T07:05:27.263Z,22.08
2024-02-08T07:08:12.440Z,20.17
2024-02-08T07:10:59.177Z,18.60
2024-02-08T07:13:44.407Z,21.30
2024-02-08T07:16:31.244Z,17.10
2024-02-08T07:19:16.845Z,17.65
2024-02-08T07:22:02.210Z,19.50
2024-02-08T07:24:47.649Z,16.50
2024-02-08T07:27:34.068Z,17.88
2024-02-08T07:30:19.476Z,15.93
2024-02-08T07:33:05.025Z,14.05
2024-02-08T07:35:50.445Z,12.60
2024-02-08T07:38:38.000Z,12.32
2024-02-08T07:41:05.937Z,16.27
2024-02-08T07:43:36.868Z,15.77
2024-02-08T07:46:06.413Z,14.80
2024-02-08T07:48:45.621Z,15.25
2024-02-08T07:51:16.661Z,16.58
2024-02-08T07:53:52.877Z,15.57
2024-02-08T07:56:30.438Z,20.48
2024-02-08T07:59:04.759Z,16.75
2024-02-08T08:01:40.191Z,16.40
2024-02-08T08:04:10.781Z,17.33
2024-02-08T08:06:47.686Z,15.18
2024-02-08T08:09:23.127Z,14.32
2024-02-08T08:11:54.333Z,15.93
2024-02-08T08:14:58.455Z,17.90
2024-02-08T08:17:41.968Z,14.57
2024-02-08T08:20:37.834Z,14.63
2024-02-08T08:23:09.445Z,10.80
2024-02-08T08:29:43.724Z,15.35
2024-02-08T08:32:25.784Z,8.00
2024-02-08T08:35:38.185Z,10.27
2024-02-08T08:38:30.622Z,11.00
2024-02-08T08:41:16.444Z,13.18
2024-02-08T08:43:54.098Z,8.20
2024-02-08T08:46:25.349Z,10.75
2024-02-08T08:48:56.313Z,15.15
2024-02-08T08:51:31.790Z,12.15
2024-02-08T08:54:15.728Z,9.95
2024-02-08T08:56:43.849Z,10.27
2024-02-08T08:59:11.570Z,12.20
2024-02-08T09:01:41.623Z,11.65
2024-02-08T09:04:27.034Z,13.18
2024-02-08T09:06:55.350Z,17.00
2024-02-08T09:09:29.824Z,14.38
2024-02-08T09:11:59.850Z,12.98
2024-02-08T09:14:31.238Z,9.60
2024-02-08T09:17:00.645Z,10.27
2024-02-08T09:19:48.802Z,12.15
2024-02-08T09:22:19.121Z,15.80
2024-02-08T09:24:47.084Z,13.90
2024-02-08T09:27:18.389Z,15.32
2024-02-08T09:29:58.214Z,11.77
2024-02-08T09:35:31.652Z,12.43
2024-02-08T09:38:07.108Z,12.02
2024-02-08T09:40:52.771Z,8.90
2024-02-08T09:43:21.666Z,9.98
2024-02-08T09:46:02.849Z,9.40
2024-02-08T09:48:44.080Z,11.43
2024-02-08T09:51:24.260Z,10.70
2024-02-08T09:54:02.128Z,9.32
2024-02-08T09:56:38.765Z,8.75
2024-02-08T09:59:11.252Z,10.70
2024-02-08T10:01:44.836Z,10.18
2024-02-08T10:04:26.432Z,9.40
2024-02-08T10:07:07.170Z,11.23
2024-02-08T10:09:41.889Z,8.80
2024-02-08T10:12:20.323Z,11.40
2024-02-08T10:14:56.141Z,11.90
2024-02-08T10:17:26.250Z,8.02
2024-02-08T10:20:17.635Z,9.18
2024-02-08T10:22:57.997Z,8.93
2024-02-08T10:25:44.345Z,7.78
2024-02-08T10:28:12.185Z,10.38
2024-02-08T10:30:42.897Z,7.60
2024-02-08T10:33:16.363Z,8.43
2024-02-08T10:35:48.714Z,6.78
2024-02-08T10:41:13.048Z,7.95
2024-02-08T10:43:47.278Z,11.15
2024-02-08T10:46:20.836Z,10.18
2024-02-08T10:48:51.809Z,6.35
2024-02-08T10:51:27.335Z,5.13
2024-02-08T10:54:16.566Z,6.15
2024-02-08T10:56:49.283Z,6.10
2024-02-08T10:59:37.555Z,8.57
2024-02-08T11:02:10.201Z,6.63
2024-02-08T11:04:42.735Z,5.07
2024-02-08T11:07:35.015Z,6.10
2024-02-08T11:10:03.089Z,4.78
2024-02-08T11:12:34.276Z,4.90
2024-02-08T11:15:15.005Z,12.23
2024-02-08T11:17:50.638Z,5.63
2024-02-08T11:20:34.396Z,4.38
2024-02-08T11:23:10.728Z,6.03
2024-02-08T11:25:46.417Z,4.07
2024-02-08T11:28:25.496Z,5.93
2024-02-08T11:30:55.536Z,5.03
2024-02-08T11:33:32.979Z,4.88
2024-02-08T11:36:13.202Z,5.90
2024-02-08T11:38:47.370Z,6.00
2024-02-08T11:41:19.549Z,6.00
2024-02-08T11:43:49.284Z,4.32
2024-02-08T11:46:19.717Z,5.85
2024-02-08T11:48:49.276Z,4.60
2024-02-08T11:51:18.228Z,4.72
2024-02-08T11:53:47.857Z,5.57
2024-02-08T11:56:21.424Z,5.70
2024-02-08T11:58:50.420Z,4.82
2024-02-08T12:01:19.177Z,4.20
2024-02-08T12:03:47.186Z,4.53
2024-02-08T12:06:24.589Z,4.95
2024-02-08T12:08:58.484Z,3.95
2024-02-08T12:11:30.596Z,5.88
2024-02-08T12:14:06.905Z,5.85
2024-02-08T12:16:47.691Z,6.15
2024-02-08T12:19:17.395Z,8.57
2024-02-08T12:21:46.157Z,5.53
2024-02-08T12:24:17.523Z,4.78
2024-02-08T12:26:46.524Z,4.82
2024-02-08T12:29:18.742Z,5.13
2024-02-08T12:31:48.291Z,4.20
2024-02-08T12:34:18.542Z,5.53
2024-02-08T12:36:49.072Z,3.35
2024-02-08T12:39:21.022Z,3.45
2024-02-08T12:41:50.544Z,5.80
2024-02-08T12:44:21.821Z,3.38
2024-02-08T12:46:56.121Z,6.10
2024-02-08T12:49:25.332Z,3.65
2024-02-08T12:52:00.445Z,3.45
2024-02-08T12:54:30.369Z,3.17
2024-02-08T12:57:11.611Z,4.03
2024-02-08T12:59:39.927Z,3.45
2024-02-08T13:02:11.234Z,79.13
2024-02-08T13:04:45.113Z,86.00
2024-02-08T13:07:16.505Z,48.80
2024-02-08T13:09:46.779Z,34.58
2024-02-08T13:12:20.300Z,5.03
2024-02-08T13:15:03.524Z,6.43
2024-02-08T13:17:34.429Z,21.42
2024-02-08T13:20:12.767Z,12.20
2024-02-08T13:22:42.673Z,7.20
2024-02-08T13:25:14.369Z,17.63
2024-02-08T13:27:42.984Z,9.38
2024-02-08T13:30:17.201Z,39.55
2024-02-08T13:32:46.121Z,7.78
2024-02-08T13:35:21.664Z,25.52
2024-02-08T13:37:51.248Z,76.78
2024-02-08T13:40:23.833Z,56.40
2024-02-08T13:42:55.674Z,20.67
2024-02-08T13:45:27.513Z,48.33
2024-02-08T13:47:59.150Z,16.70
2024-02-08T13:50:32.434Z,34.10
2024-02-08T13:53:07.428Z,6.93
2024-02-08T13:55:46.398Z,10.63
2024-02-08T13:58:21.857Z,15.57
2024-02-08T14:00:50.062Z,13.93
2024-02-08T14:03:20.924Z,35.40
2024-02-08T14:05:52.535Z,13.43
2024-02-08T14:08:25.228Z,45.72
2024-02-08T14:10:55.884Z,12.27
2024-02-08T14:13:31.649Z,8.27
2024-02-08T14:16:06.428Z,25.33
2024-02-08T14:18:38.091Z,28.02
2024-02-08T14:21:09.733Z,12.82
2024-02-08T14:23:41.601Z,22.05
2024-02-08T14:26:27.739Z,11.82
2024-02-08T14:28:56.893Z,8.57
2024-02-08T14:31:24.740Z,8.50
2024-02-08T14:33:53.524Z,16.67
2024-02-08T14:36:21.201Z,12.30
2024-02-08T14:38:49.617Z,14.30
2024-02-08T14:41:34.128Z,9.88
2024-02-08T14:44:18.837Z,10.02
2024-02-08T14:46:47.686Z,14.13
2024-02-08T14:49:28.522Z,11.43
2024-02-08T14:52:01.805Z,9.90
2024-02-08T14:54:29.783Z,10.43
2024-02-08T14:57:11.529Z,13.32
2024-02-08T14:59:51.976Z,11.95
2024-02-08T15:05:13.366Z,6.97
2024-02-08T15:07:52.465Z,8.32
2024-02-08T15:10:44.376Z,5.57
2024-02-08T15:13:20.301Z,6.18
2024-02-08T15:15:51.619Z,5.45
2024-02-08T15:18:31.730Z,6.80
2024-02-08T15:21:00.010Z,5.57
2024-02-08T15:23:33.502Z,7.47
2024-02-08T15:26:25.773Z,8.13
2024-02-08T15:28:58.334Z,6.25
2024-02-08T15:44:54.174Z,6.78
2024-02-08T15:47:22.714Z,5.03
2024-02-08T15:49:56.436Z,4.20
2024-02-08T15:52:29.941Z,4.97
2024-02-08T15:54:59.887Z,5.53
2024-02-08T15:57:31.007Z,5.13
2024-02-08T16:00:01.651Z,5.43
2024-02-08T16:02:29.157Z,6.43
2024-02-08T16:06:06.037Z,5.82
2024-02-08T16:08:36.845Z,6.40
2024-02-08T16:11:19.712Z,8.18
2024-02-08T16:13:57.919Z,7.88
2024-02-08T16:16:27.025Z,6.38
2024-02-08T16:19:24.157Z,7.95
2024-02-08T16:21:57.929Z,10.02
2024-02-08T16:24:32.174Z,13.00
2024-02-08T16:27:10.249Z,7.65
2024-02-08T16:29:46.757Z,8.70
2024-02-08T16:32:21.358Z,9.20
2024-02-08T16:34:55.069Z,10.45
2024-02-08T16:40:55.049Z,7.68
2024-02-08T16:44:15.198Z,9.43
2024-02-08T16:46:52.487Z,10.35
2024-02-08T16:52:41.734Z,8.82
2024-02-08T16:55:50.307Z,10.40
2024-02-08T16:58:43.133Z,7.07
2024-02-08T17:01:23.569Z,5.65
2024-02-08T17:04:23.195Z,6.03
2024-02-08T17:07:08.614Z,7.68
2024-02-08T17:09:45.109Z,7.38
2024-02-08T17:12:21.342Z,7.65
2024-02-08T17:14:50.749Z,6.43
2024-02-08T17:20:39.197Z,7.45
2024-02-08T17:23:21.190Z,5.40
2024-02-08T17:26:10.010Z,7.60
2024-02-08T17:28:55.342Z,7.53
2024-02-08T17:31:30.444Z,8.20
2024-02-08T17:33:59.017Z,6.10
2024-02-08T17:36:35.334Z,5.60
2024-02-08T17:39:07.771Z,6.75
2024-02-08T17:41:39.199Z,5.90
2024-02-08T17:44:06.899Z,4.28
2024-02-08T17:46:42.773Z,6.32
2024-02-08T17:49:19.685Z,6.43
2024-02-08T17:51:50.513Z,5.07
2024-02-08T17:54:25.942Z,4.65
2024-02-08T17:57:12.801Z,5.25
2024-02-08T17:59:44.640Z,6.15
2024-02-08T18:02:16.097Z,4.88
2024-02-08T18:04:43.903Z,6.22
2024-02-08T18:07:14.100Z,7.68
2024-02-08T18:09:55.007Z,5.40
2024-02-08T18:12:34.976Z,4.20
2024-02-08T18:15:12.348Z,3.53
2024-02-08T18:17:45.838Z,7.55
2024-02-08T18:20:16.328Z,3.85
2024-02-08T18:22:46.165Z,4.20
2024-02-08T18:25:32.035Z,2.72
2024-02-08T18:28:01.541Z,2.50
2024-02-08T18:30:30.056Z,3.67
2024-02-08T18:32:58.982Z,4.15
2024-02-08T18:35:26.979Z,8.23
2024-02-08T18:37:54.980Z,6.93
2024-02-08T18:40:29.258Z,4.93
2024-02-08T18:42:56.321Z,4.45
2024-02-08T18:45:26.304Z,4.30
2024-02-08T18:48:12.932Z,6.05
2024-02-08T18:50:57.887Z,9.85
2024-02-08T18:53:49.077Z,7.70
2024-02-08T18:56:25.943Z,12.95
2024-02-08T18:58:53.978Z,7.57
2024-02-08T19:01:22.198Z,7.85
2024-02-08T19:03:52.453Z,6.93
2024-02-08T19:06:20.331Z,12.52
2024-02-08T19:08:48.497Z,8.05
2024-02-08T19:11:16.074Z,8.52
2024-02-08T19:13:46.181Z,11.60
2024-02-08T19:16:16.269Z,12.40
2024-02-08T19:18:48.433Z,10.70
2024-02-08T19:21:26.732Z,7.50
2024-02-08T19:23:56.745Z,11.65
2024-02-08T19:26:26.744Z,7.97
2024-02-08T19:29:02.197Z,11.18
2024-02-08T19:31:31.176Z,14.52
2024-02-08T19:34:04.862Z,10.93
2024-02-08T19:36:33.609Z,9.73
2024-02-08T19:39:22.283Z,5.95
2024-02-08T19:41:51.234Z,7.75
2024-02-08T19:44:25.830Z,9.27
2024-02-08T19:47:01.101Z,10.35
2024-02-08T19:49:36.365Z,9.32
2024-02-08T19:52:07.868Z,10.40
2024-02-08T19:54:39.032Z,6.93
2024-02-08T19:57:07.352Z,13.25
2024-02-08T19:59:40.540Z,8.30
2024-02-08T20:02:08.747Z,10.10
2024-02-08T20:04:39.187Z,10.82
2024-02-08T20:07:12.046Z,11.00
2024-02-08T20:09:43.516Z,14.93
2024-02-08T20:12:15.532Z,8.43
2024-02-08T20:14:45.036Z,12.43
2024-02-08T20:17:14.034Z,8.32
2024-02-08T20:19:42.592Z,10.77
2024-02-08T20:22:13.345Z,9.13
2024-02-08T20:24:44.861Z,7.85
2024-02-08T20:27:12.497Z,8.80
2024-02-08T20:29:43.654Z,8.02
2024-02-08T20:32:13.632Z,10.85
2024-02-08T20:34:41.658Z,10.23
2024-02-08T20:37:14.861Z,8.65
2024-02-08T20:39:43.283Z,8.57
2024-02-08T20:42:13.366Z,7.10
2024-02-08T20:44:44.546Z,9.85
2024-02-08T20:47:14.247Z,8.70
2024-02-08T20:49:43.171Z,9.13
2024-02-08T20:52:13.245Z,7.93
2024-02-08T20:54:45.490Z,10.25
2024-02-08T20:59:41.327Z,8.93
2024-02-08T21:02:16.257Z,8.90
2024-02-08T21:04:46.676Z,13.05
2024-02-08T21:07:17.912Z,11.10
2024-02-08T21:09:46.196Z,11.25
2024-02-08T21:12:14.001Z,8.48
2024-02-08T21:14:43.816Z,7.82
2024-02-08T21:17:12.540Z,15.52
2024-02-08T21:19:43.164Z,13.88
2024-02-08T21:22:18.124Z,9.75
2024-02-08T21:24:47.092Z,12.52
2024-02-08T21:27:20.310Z,14.60
2024-02-08T21:29:47.904Z,10.65
2024-02-08T21:32:15.469Z,7.78
2024-02-08T21:34:43.046Z,8.10
2024-02-08T21:37:17.072Z,12.20
2024-02-08T21:39:50.534Z,11.30
2024-02-08T21:42:20.865Z,11.68
2024-02-08T21:44:48.570Z,9.32
2024-02-08T21:47:17.187Z,12.45
2024-02-08T21:49:44.858Z,14.30
2024-02-08T21:52:16.261Z,16.17
2024-02-08T21:54:44.092Z,10.55
2024-02-08T21:57:15.784Z,12.00
2024-02-08T21:59:43.835Z,17.05
2024-02-08T22:02:11.513Z,11.75
2024-02-08T22:04:39.923Z,11.07
2024-02-08T22:07:08.105Z,10.07
2024-02-08T22:09:37.202Z,18.90
2024-02-08T22:12:06.007Z,15.80
2024-02-08T22:14:35.408Z,15.13
2024-02-08T22:17:09.283Z,17.85
2024-02-08T22:19:39.100Z,17.25
2024-02-08T22:22:06.880Z,15.77
2024-02-08T22:24:36.229Z,14.48
2024-02-08T22:27:09.580Z,15.82
2024-02-08T22:29:38.818Z,15.88
2024-02-08T22:32:08.187Z,17.77
2024-02-08T22:34:36.247Z,22.42
2024-02-08T22:37:05.596Z,16.88
2024-02-08T22:39:33.504Z,18.52
2024-02-08T22:42:01.286Z,26.67
2024-02-08T22:44:30.796Z,27.63
2024-02-08T22:46:58.349Z,20.10
2024-02-08T22:49:27.616Z,11.43
2024-02-08T22:51:55.310Z,10.15
2024-02-08T22:54:24.439Z,14.18
2024-02-08T22:56:52.310Z,17.05
2024-02-08T22:59:23.351Z,13.30
2024-02-08T23:01:55.540Z,13.07
2024-02-08T23:04:23.999Z,10.02
2024-02-08T23:06:52.578Z,15.63
2024-02-08T23:09:20.481Z,12.05
2024-02-08T23:11:50.934Z,11.10
2024-02-08T23:14:21.568Z,12.60
2024-02-08T23:16:51.912Z,12.25
2024-02-08T23:19:21.209Z,12.63
2024-02-08T23:21:53.569Z,7.90
2024-02-08T23:24:23.755Z,11.65
2024-02-08T23:26:51.962Z,12.85
2024-02-08T23:29:22.410Z,15.55
2024-02-08T23:31:50.680Z,11.60
2024-02-08T23:34:18.316Z,10.95
2024-02-08T23:36:55.245Z,12.13
2024-02-08T23:39:28.255Z,10.25
2024-02-08T23:41:58.142Z,12.48
2024-02-08T23:44:29.255Z,12.05
2024-02-08T23:46:57.339Z,11.60
2024-02-08T23:49:27.010Z,9.80
2024-02-08T23:51:56.603Z,11.02
2024-02-08T23:54:24.175Z,12.02
2024-02-08T23:56:54.984Z,11.20
2024-02-08T23:59:22.629Z,15.63
